createdAt,value
2023-01-26T00:01:12.533Z,7.80
2023-01-26T00:04:15.539Z,7.72
2023-01-26T00:07:18.114Z,8.48
2023-01-26T00:10:21.331Z,8.73
2023-01-26T00:13:24.087Z,7.77
2023-01-26T00:16:27.988Z,8.10
2023-01-26T00:19:30.583Z,9.75
2023-01-26T00:22:33.409Z,8.90
2023-01-26T00:25:40.064Z,9.30
2023-01-26T00:28:43.122Z,8.90
2023-01-26T00:31:46.014Z,10.05
2023-01-26T00:34:50.283Z,9.82
2023-01-26T00:37:52.958Z,11.18
2023-01-26T00:40:57.354Z,9.57
2023-01-26T00:44:00.388Z,9.13
2023-01-26T00:47:03.418Z,8.07
2023-01-26T00:50:06.509Z,9.98
2023-01-26T00:53:10.454Z,10.13
2023-01-26T00:56:14.807Z,8.77
2023-01-26T00:59:17.736Z,9.03
2023-01-26T01:02:22.614Z,8.07
2023-01-26T01:05:27.516Z,9.50
2023-01-26T01:08:30.750Z,8.35
2023-01-26T01:11:34.197Z,7.87
2023-01-26T01:14:36.734Z,7.87
2023-01-26T01:17:39.748Z,8.93
2023-01-26T01:20:44.257Z,9.73
2023-01-26T01:23:47.302Z,9.88
2023-01-26T01:26:50.163Z,9.17
2023-01-26T01:29:53.263Z,9.47
2023-01-26T01:32:56.875Z,8.35
2023-01-26T01:36:08.378Z,9.18
2023-01-26T01:39:11.234Z,11.20
2023-01-26T01:42:14.173Z,9.60
2023-01-26T01:45:49.244Z,10.17
2023-01-26T01:49:05.519Z,10.07
2023-01-26T01:52:28.995Z,9.23
2023-01-26T01:55:31.994Z,9.52
2023-01-26T01:58:37.654Z,10.00
2023-01-26T02:01:41.034Z,11.87
2023-01-26T02:04:44.530Z,11.45
2023-01-26T02:07:47.412Z,12.60
2023-01-26T02:10:53.664Z,10.95
2023-01-26T02:13:57.553Z,11.73
2023-01-26T02:17:00.438Z,12.27
2023-01-26T02:20:03.298Z,11.43
2023-01-26T02:23:26.413Z,14.23
2023-01-26T02:26:34.065Z,14.23
2023-01-26T02:29:37.471Z,14.37
2023-01-26T02:32:40.007Z,13.60
2023-01-26T02:35:43.116Z,12.55
2023-01-26T02:38:56.149Z,13.85
2023-01-26T02:42:17.490Z,17.10
2023-01-26T02:45:21.308Z,15.83
2023-01-26T02:48:42.973Z,18.77
2023-01-26T02:51:45.545Z,16.70
2023-01-26T02:55:07.193Z,17.33
2023-01-26T02:58:10.028Z,17.27
2023-01-26T03:01:13.777Z,14.03
2023-01-26T03:04:22.288Z,15.43
2023-01-26T03:07:25.586Z,17.37
2023-01-26T03:10:28.437Z,16.00
2023-01-26T03:13:31.277Z,18.77
2023-01-26T03:16:34.275Z,18.20
2023-01-26T03:19:57.196Z,18.60
2023-01-26T03:23:19.319Z,18.45
2023-01-26T03:26:41.158Z,17.80
2023-01-26T03:29:44.437Z,16.40
2023-01-26T03:32:47.607Z,17.17
2023-01-26T03:35:53.331Z,15.90
2023-01-26T03:38:57.905Z,16.12
2023-01-26T03:42:20.050Z,17.30
2023-01-26T03:45:41.728Z,15.20
2023-01-26T03:49:03.145Z,17.33
2023-01-26T03:52:24.787Z,16.60
2023-01-26T03:55:45.874Z,17.48
2023-01-26T03:58:54.224Z,16.00
2023-01-26T04:02:15.566Z,16.27
2023-01-26T04:05:37.048Z,15.77
2023-01-26T04:08:39.681Z,17.47
2023-01-26T04:11:42.646Z,18.27
2023-01-26T04:15:04.423Z,16.27
2023-01-26T04:18:26.838Z,15.68
2023-01-26T04:21:30.182Z,16.40
2023-01-26T04:24:33.276Z,15.40
2023-01-26T04:27:36.079Z,13.93
2023-01-26T04:30:40.530Z,16.15
2023-01-26T04:33:43.576Z,15.93
2023-01-26T04:36:46.671Z,14.80
2023-01-26T04:39:49.603Z,15.33
2023-01-26T04:42:52.818Z,14.63
2023-01-26T04:46:03.757Z,15.05
2023-01-26T04:49:06.869Z,14.13
2023-01-26T04:52:09.760Z,16.83
2023-01-26T04:55:12.721Z,15.63
2023-01-26T04:58:16.594Z,19.12
2023-01-26T05:01:20.176Z,16.70
2023-01-26T05:04:23.190Z,16.20
2023-01-26T05:07:26.388Z,15.77
2023-01-26T05:10:29.721Z,15.63
2023-01-26T05:13:33.227Z,14.25
2023-01-26T05:16:36.692Z,14.75
2023-01-26T05:19:39.836Z,14.30
2023-01-26T05:22:43.603Z,14.63
2023-01-26T05:25:47.675Z,16.67
2023-01-26T05:28:50.437Z,15.38
2023-01-26T05:31:53.523Z,14.05
2023-01-26T05:34:56.223Z,14.13
2023-01-26T05:37:59.695Z,14.40
2023-01-26T05:41:03.010Z,15.30
2023-01-26T05:44:10.359Z,14.98
2023-01-26T05:47:13.265Z,13.82
2023-01-26T05:50:17.374Z,14.85
2023-01-26T05:53:21.869Z,14.57
2023-01-26T05:56:24.873Z,13.60
2023-01-26T05:59:28.090Z,14.87
2023-01-26T06:02:31.114Z,17.20
2023-01-26T06:05:34.073Z,14.85
2023-01-26T06:08:38.889Z,14.73
2023-01-26T06:11:43.704Z,14.80
2023-01-26T06:14:47.390Z,15.50
2023-01-26T06:17:50.853Z,15.43
2023-01-26T06:20:53.924Z,15.80
2023-01-26T06:23:57.231Z,13.40
2023-01-26T06:27:00.410Z,14.53
2023-01-26T06:30:05.542Z,14.18
2023-01-26T06:33:15.192Z,17.83
2023-01-26T06:36:18.405Z,15.60
2023-01-26T06:39:22.366Z,18.60
2023-01-26T06:42:25.407Z,16.93
2023-01-26T06:45:28.379Z,18.10
2023-01-26T06:48:33.465Z,18.23
2023-01-26T06:51:45.410Z,17.23
2023-01-26T06:54:50.543Z,15.43
2023-01-26T06:57:55.126Z,21.73
2023-01-26T07:01:14.924Z,19.12
2023-01-26T07:04:18.661Z,17.62
2023-01-26T07:07:21.646Z,15.88
2023-01-26T07:10:24.837Z,15.50
2023-01-26T07:13:27.763Z,15.30
2023-01-26T07:16:32.665Z,16.70
2023-01-26T07:19:37.400Z,16.17
2023-01-26T07:22:40.043Z,16.27
2023-01-26T07:25:43.833Z,16.60
2023-01-26T07:28:46.528Z,15.13
2023-01-26T07:31:49.700Z,20.27
2023-01-26T07:34:52.400Z,20.50
2023-01-26T07:37:55.633Z,16.80
2023-01-26T07:40:59.201Z,16.60
2023-01-26T07:44:02.247Z,16.53
2023-01-26T07:47:05.064Z,16.58
2023-01-26T07:50:09.206Z,16.80
2023-01-26T07:53:15.391Z,17.73
2023-01-26T07:56:21.052Z,16.90
2023-01-26T07:59:24.272Z,17.37
2023-01-26T08:02:27.612Z,14.23
2023-01-26T08:05:32.073Z,13.65
2023-01-26T08:08:35.295Z,14.07
2023-01-26T08:11:38.267Z,13.27
2023-01-26T08:14:46.700Z,14.40
2023-01-26T08:17:50.075Z,14.68
2023-01-26T08:20:54.001Z,15.32
2023-01-26T08:24:01.944Z,16.30
2023-01-26T08:27:05.187Z,13.83
2023-01-26T08:30:09.783Z,14.80
2023-01-26T08:33:12.693Z,13.73
2023-01-26T08:36:16.315Z,14.45
2023-01-26T08:39:19.146Z,14.48
2023-01-26T08:42:22.902Z,14.77
2023-01-26T08:45:25.829Z,13.60
2023-01-26T08:48:31.165Z,14.20
2023-01-26T08:51:33.857Z,14.32
2023-01-26T08:54:37.256Z,14.23
2023-01-26T08:57:39.972Z,14.77
2023-01-26T09:00:43.455Z,14.20
2023-01-26T09:03:46.598Z,14.27
2023-01-26T09:06:49.733Z,15.50
2023-01-26T09:09:53.621Z,14.63
2023-01-26T09:13:00.995Z,14.30
2023-01-26T09:16:08.737Z,15.27
2023-01-26T09:19:12.180Z,15.52
2023-01-26T09:22:14.994Z,14.48
2023-01-26T09:25:18.466Z,12.65
2023-01-26T09:28:21.918Z,14.40
2023-01-26T09:31:25.088Z,12.20
2023-01-26T09:34:28.692Z,13.88
2023-01-26T09:37:31.658Z,14.57
2023-01-26T09:40:57.594Z,13.77
2023-01-26T09:44:08.353Z,11.90
2023-01-26T09:47:24.592Z,15.90
2023-01-26T09:50:31.766Z,13.25
2023-01-26T09:53:48.042Z,12.30
2023-01-26T09:56:51.133Z,13.85
2023-01-26T10:00:00.572Z,11.97
2023-01-26T10:03:21.004Z,15.03
2023-01-26T10:06:28.284Z,12.20
2023-01-26T10:09:37.926Z,11.98
2023-01-26T10:12:41.226Z,13.05
2023-01-26T10:15:47.291Z,11.23
2023-01-26T10:18:56.534Z,12.53
2023-01-26T10:22:02.698Z,13.95
2023-01-26T10:25:14.975Z,13.48
2023-01-26T10:28:20.934Z,12.57
2023-01-26T10:31:28.742Z,15.47
2023-01-26T10:34:32.672Z,12.43
2023-01-26T10:37:35.790Z,12.65
2023-01-26T10:40:45.613Z,11.80
2023-01-26T10:44:00.500Z,13.77
2023-01-26T10:47:15.229Z,16.73
2023-01-26T10:50:25.201Z,13.53
2023-01-26T10:53:29.865Z,12.48
2023-01-26T10:56:34.609Z,11.68
2023-01-26T10:59:58.005Z,13.32
2023-01-26T11:03:27.098Z,14.70
2023-01-26T11:06:30.195Z,13.63
2023-01-26T11:09:33.119Z,14.87
2023-01-26T11:12:35.748Z,13.00
2023-01-26T11:15:40.820Z,13.55
2023-01-26T11:19:02.777Z,14.47
2023-01-26T11:22:08.206Z,11.83
2023-01-26T11:25:21.075Z,12.10
2023-01-26T11:29:00.869Z,14.18
2023-01-26T11:32:30.995Z,12.93
2023-01-26T11:35:51.651Z,9.97
2023-01-26T11:39:03.383Z,13.97
2023-01-26T11:42:35.942Z,13.95
2023-01-26T11:45:57.489Z,12.90
2023-01-26T11:49:12.780Z,12.00
2023-01-26T11:52:25.302Z,14.70
2023-01-26T11:55:31.865Z,18.70
2023-01-26T11:59:11.278Z,18.30
2023-01-26T12:02:27.401Z,20.23
2023-01-26T12:05:38.385Z,16.10
2023-01-26T12:08:50.162Z,15.87
2023-01-26T12:11:57.273Z,14.80
2023-01-26T12:14:59.783Z,14.90
2023-01-26T12:18:09.168Z,15.15
2023-01-26T12:21:12.131Z,15.40
2023-01-26T12:25:16.057Z,11.90
2023-01-26T12:28:32.031Z,13.37
2023-01-26T12:31:58.919Z,15.48
2023-01-26T12:35:02.105Z,17.62
2023-01-26T12:38:18.240Z,16.85
2023-01-26T12:41:44.527Z,15.50
2023-01-26T12:44:54.819Z,15.90
2023-01-26T12:48:08.192Z,14.85
2023-01-26T12:51:19.210Z,13.52
2023-01-26T12:54:33.079Z,13.05
2023-01-26T12:57:58.333Z,14.67
2023-01-26T13:01:02.727Z,14.87
2023-01-26T13:04:10.659Z,12.90
2023-01-26T13:07:37.165Z,14.20
2023-01-26T13:10:50.324Z,12.02
2023-01-26T13:13:57.391Z,12.37
2023-01-26T13:17:20.264Z,14.07
2023-01-26T13:20:27.813Z,15.15
2023-01-26T13:23:39.411Z,13.25
2023-01-26T13:26:44.757Z,17.00
2023-01-26T13:29:55.589Z,13.10
2023-01-26T13:33:16.979Z,12.57
2023-01-26T13:36:22.246Z,14.27
2023-01-26T13:39:30.373Z,12.25
2023-01-26T13:42:38.099Z,12.88
2023-01-26T13:45:51.025Z,17.13
2023-01-26T13:48:56.042Z,11.83
2023-01-26T13:51:58.962Z,11.77
2023-01-26T13:55:03.172Z,13.50
2023-01-26T13:58:17.305Z,16.85
2023-01-26T14:01:20.953Z,16.20
2023-01-26T14:04:25.152Z,12.73
2023-01-26T14:07:32.918Z,9.70
2023-01-26T14:10:43.889Z,10.63
2023-01-26T14:13:51.114Z,13.32
2023-01-26T14:16:54.476Z,10.57
2023-01-26T14:20:00.035Z,13.23
2023-01-26T14:23:03.860Z,13.10
2023-01-26T14:26:31.432Z,13.73
2023-01-26T14:29:39.223Z,20.10
2023-01-26T14:32:42.252Z,22.00
2023-01-26T14:35:56.573Z,18.07
2023-01-26T14:39:01.246Z,13.88
2023-01-26T14:42:04.900Z,14.73
2023-01-26T14:45:13.013Z,12.68
2023-01-26T14:48:19.600Z,13.27
2023-01-26T14:51:24.294Z,12.43
2023-01-26T14:54:36.762Z,14.68
2023-01-26T14:57:39.788Z,16.25
2023-01-26T15:00:49.212Z,13.75
2023-01-26T15:04:02.060Z,12.63
2023-01-26T15:07:23.288Z,14.00
2023-01-26T15:10:35.614Z,14.50
2023-01-26T15:13:41.336Z,14.40
2023-01-26T15:16:54.047Z,11.75
2023-01-26T15:19:57.339Z,12.37
2023-01-26T15:23:00.283Z,12.50
2023-01-26T15:26:08.675Z,12.23
2023-01-26T15:29:21.256Z,12.68
2023-01-26T15:32:35.241Z,12.90
2023-01-26T15:35:37.834Z,12.83
2023-01-26T15:38:41.133Z,12.67
2023-01-26T15:42:01.846Z,12.25
2023-01-26T15:45:16.202Z,11.43
2023-01-26T15:48:19.149Z,12.70
2023-01-26T15:51:22.414Z,13.17
2023-01-26T15:54:25.030Z,11.93
2023-01-26T15:57:28.307Z,12.90
2023-01-26T16:00:30.978Z,13.85
2023-01-26T16:03:33.946Z,14.85
2023-01-26T16:06:36.594Z,16.93
2023-01-26T16:09:39.904Z,17.73
2023-01-26T16:12:42.509Z,20.08
2023-01-26T16:15:47.888Z,15.63
2023-01-26T16:18:50.461Z,21.65
2023-01-26T16:21:53.468Z,25.37
2023-01-26T16:24:55.973Z,17.60
2023-01-26T16:27:59.482Z,19.77
2023-01-26T16:31:02.788Z,20.25
2023-01-26T16:34:05.763Z,27.23
2023-01-26T16:37:08.540Z,20.43
2023-01-26T16:40:14.209Z,19.70
2023-01-26T16:43:23.961Z,15.70
2023-01-26T16:46:28.804Z,34.15
2023-01-26T16:49:31.409Z,23.25
2023-01-26T16:52:34.969Z,23.43
2023-01-26T16:55:38.066Z,20.97
2023-01-26T16:58:41.199Z,14.50
2023-01-26T17:01:44.343Z,17.48
2023-01-26T17:04:47.228Z,15.18
2023-01-26T17:07:51.098Z,14.90
2023-01-26T17:11:01.946Z,14.40
2023-01-26T17:14:05.643Z,13.85
2023-01-26T17:17:10.013Z,15.07
2023-01-26T17:20:19.372Z,14.73
2023-01-26T17:23:22.892Z,14.43
2023-01-26T17:26:25.511Z,13.70
2023-01-26T17:29:28.446Z,13.65
2023-01-26T17:32:31.243Z,13.90
2023-01-26T17:35:34.078Z,13.18
2023-01-26T17:38:36.739Z,13.67
2023-01-26T17:41:39.817Z,72.03
2023-01-26T17:44:42.682Z,54.45
2023-01-26T17:47:45.559Z,28.77
2023-01-26T17:50:51.331Z,15.23
2023-01-26T17:53:54.383Z,19.47
2023-01-26T17:56:57.461Z,15.17
2023-01-26T18:00:00.293Z,13.38
2023-01-26T18:03:03.641Z,12.68
2023-01-26T18:06:06.629Z,13.55
2023-01-26T18:09:09.732Z,12.80
2023-01-26T18:12:12.835Z,12.53
2023-01-26T18:15:15.874Z,13.13
2023-01-26T18:18:18.914Z,15.27
2023-01-26T18:21:23.730Z,14.02
2023-01-26T18:24:27.228Z,15.13
2023-01-26T18:27:29.852Z,13.23
2023-01-26T18:30:32.799Z,14.77
2023-01-26T18:33:36.477Z,15.45
2023-01-26T18:36:39.874Z,14.85
2023-01-26T18:39:42.662Z,13.40
2023-01-26T18:42:46.984Z,22.23
2023-01-26T18:45:49.651Z,22.17
2023-01-26T18:48:53.794Z,14.40
2023-01-26T18:51:57.005Z,13.95
2023-01-26T18:55:00.096Z,23.77
2023-01-26T18:58:04.051Z,28.23
2023-01-26T19:01:11.895Z,26.42
2023-01-26T19:04:17.873Z,22.62
2023-01-26T19:07:21.316Z,21.15
2023-01-26T19:10:23.904Z,28.77
2023-01-26T19:13:27.196Z,33.87
2023-01-26T19:16:30.942Z,30.88
2023-01-26T19:19:34.635Z,28.95
2023-01-26T19:22:37.653Z,26.77
2023-01-26T19:25:40.744Z,34.23
2023-01-26T19:28:44.118Z,43.90
2023-01-26T19:31:47.456Z,22.92
2023-01-26T19:34:50.114Z,23.25
2023-01-26T19:37:53.203Z,14.87
2023-01-26T19:40:56.433Z,16.43
2023-01-26T19:43:59.464Z,27.37
2023-01-26T19:47:02.287Z,29.85
2023-01-26T19:50:05.697Z,28.38
2023-01-26T19:53:08.570Z,14.43
2023-01-26T19:56:16.974Z,15.13
2023-01-26T19:59:19.937Z,15.70
2023-01-26T20:02:23.128Z,30.70
2023-01-26T20:05:26.129Z,28.23
2023-01-26T20:08:29.253Z,28.85
2023-01-26T20:11:32.539Z,24.43
2023-01-26T20:14:36.365Z,14.87
2023-01-26T20:17:39.285Z,15.57
2023-01-26T20:20:42.236Z,14.73
2023-01-26T20:23:53.924Z,12.30
2023-01-26T20:26:57.994Z,9.90
2023-01-26T20:30:01.200Z,11.47
2023-01-26T20:33:04.399Z,14.30
2023-01-26T20:36:18.701Z,14.07
2023-01-26T20:39:25.207Z,14.90
2023-01-26T20:42:28.461Z,18.93
2023-01-26T20:45:31.680Z,22.13
2023-01-26T20:48:34.854Z,24.75
2023-01-26T20:51:39.557Z,19.17
2023-01-26T20:54:42.642Z,15.40
2023-01-26T20:57:46.588Z,15.90
2023-01-26T21:00:49.728Z,8.33
2023-01-26T21:03:53.552Z,11.43
2023-01-26T21:06:57.113Z,15.75
2023-01-26T21:09:59.869Z,15.50
2023-01-26T21:13:03.065Z,15.70
2023-01-26T21:16:05.942Z,12.93
2023-01-26T21:19:09.573Z,15.27
2023-01-26T21:22:12.382Z,12.43
2023-01-26T21:25:15.524Z,16.08
2023-01-26T21:28:18.060Z,16.50
2023-01-26T21:31:22.739Z,15.83
2023-01-26T21:34:25.298Z,16.45
2023-01-26T21:37:28.325Z,16.05
2023-01-26T21:40:30.842Z,15.40
2023-01-26T21:43:33.634Z,12.43
2023-01-26T21:46:36.714Z,10.50
2023-01-26T21:49:39.653Z,16.80
2023-01-26T21:52:57.624Z,17.70
2023-01-26T21:56:00.537Z,18.15
2023-01-26T21:59:11.413Z,15.70
2023-01-26T22:02:14.448Z,14.17
2023-01-26T22:05:17.371Z,9.25
2023-01-26T22:08:19.999Z,10.95
2023-01-26T22:11:22.820Z,11.50
2023-01-26T22:14:26.300Z,12.23
2023-01-26T22:17:29.208Z,8.63
2023-01-26T22:20:31.752Z,8.40
2023-01-26T22:23:36.188Z,11.95
2023-01-26T22:26:38.814Z,12.00
2023-01-26T22:29:42.304Z,8.60
2023-01-26T22:32:44.910Z,10.97
2023-01-26T22:35:47.765Z,8.27
2023-01-26T22:38:51.133Z,10.50
2023-01-26T22:41:54.294Z,6.87
2023-01-26T22:44:56.893Z,6.53
2023-01-26T22:47:59.817Z,6.57
2023-01-26T22:51:09.349Z,8.50
2023-01-26T22:54:12.269Z,5.95
2023-01-26T22:57:14.801Z,8.20
2023-01-26T23:00:17.853Z,8.70
2023-01-26T23:03:22.611Z,5.90
2023-01-26T23:06:25.696Z,7.47
2023-01-26T23:09:28.355Z,9.00
2023-01-26T23:12:34.603Z,9.77
2023-01-26T23:15:38.084Z,10.83
2023-01-26T23:18:41.194Z,9.67
2023-01-26T23:21:43.755Z,10.57
2023-01-26T23:25:06.785Z,11.12
2023-01-26T23:28:09.482Z,8.27
2023-01-26T23:31:14.218Z,7.33
2023-01-26T23:34:16.851Z,9.03
2023-01-26T23:37:19.740Z,7.68
2023-01-26T23:40:22.356Z,9.10
2023-01-26T23:43:25.225Z,10.02
2023-01-26T23:46:27.983Z,9.03
2023-01-26T23:49:30.925Z,7.07
2023-01-26T23:52:33.478Z,7.22
2023-01-26T23:55:40.575Z,6.05
2023-01-26T23:58:43.868Z,6.57
